Gettysburg, Ohio
Current Conditions -  °F | °C
As of 10:55 AM on Friday 24 Oct 2014 (Local Time) from KVES Reporting Station
Clear Clear  
Wind Chill: 55°   Ceiling: Unl
Heat Index: 55°   Visibility: 10mi
Dew Point: 43°   Wind: 0mph
Humidity: 63%   Direction: NA
Pressure: 30.1"   Gusts: NA
Location:  40.11°N, 84.5°W
Report Text: KVES 241455Z AUTO 00000KT 10SM CLR 13/06 A3010 RMK AO2
Loading
Personal Weather Stations






























Interactive Weather Map
Tropical Storm Tracking
New forecast layout! Learn more

10-Day Weather Forecast

Advertisements
Track Severe Weather on mobile